AirNav   TITAN Aviation Fuels
 
 906 users online  

80IL Loeppert CPL Aero Airport
Shirland, Illinois, USA

GOING TO SHIRLAND?


FAA INFORMATION EFFECTIVE 01 DECEMBER 2022

Location

FAA Identifier: 80IL
Lat/Long: 42-27-05.6900N 089-13-30.3000W
42-27.094833N 089-13.505000W
42.4515806,-89.2250833
(estimated)
Elevation: 820 ft. / 250 m (estimated)
From city: 1 mile WNW of SHIRLAND, IL
Time zone: UTC -6 (UTC -5 during Daylight Saving Time)
Zip code: 61072

Airport Operations

Airport use: Private use. Permission required prior to landing
Activation date: 10/2013
Control tower: no
ARTCC: CHICAGO CENTER
FSS: KANKAKEE FLIGHT SERVICE STATION
Attendance: UNATNDD
Segmented circle: no

Airport Communications

WX AWOS-3 at JVL (13 nm NE): PHONE 608-758-1723
WX ASOS at RFD (16 nm S): PHONE 815-484-6229
WX AWOS-3 at EFT (19 nm NW): 118.375 (608-328-8359)

Nearby radio navigation aids

VOR radial/distance  VOR name  Freq  Var
JVLr217/8.3JANESVILLE VOR/DME114.3003E
PLLr022/32.0POLO VOR/DME111.2003E

Airport Services

Runway Information

Runway 1/19

Dimensions: 1000 x 100 ft. / 305 x 30 m
Surface: turf
RUNWAY 1  RUNWAY 19
Traffic pattern: leftright

Airport Ownership and Management from official FAA records

Ownership: Privately-owned
Owner: PETER V. LOEPPERT
13804 HAULEY RD
DURAND, IL 61024
Phone 847-934-3494
Manager: PETER V. LOEPPERT
13804 HAULEY RD
DURAND, IL 61024
Phone 847-877-8217

Additional Remarks

FOR CD CTC CHICAGO ARTCC AT 630-906-8921.

Instrument Procedures

There are no published instrument procedures at 80IL.

Some nearby airports with instrument procedures:

44C - Beloit Airport (12 nm E)
KJVL - Southern Wisconsin Regional Airport (13 nm NE)
KRFD - Chicago/Rockford International Airport (16 nm S)
C77 - Poplar Grove Airport (19 nm SE)
KEFT - Monroe Municipal Airport (19 nm NW)
 
Loc | Ops | Rwys | IFR | FBO | Links
Com | Nav | Svcs | Stats | Notes
Aerial photo
No photo
 
Airport distance calculator
Flying to Loeppert CPL Aero Airport? Find the distance to fly.

From to 80IL

Sunrise and sunset
Times for 07-Dec-2022
 Local
(UTC-6)
 Zulu
(UTC)
Morning civil twilight06:4212:42
Sunrise07:1413:14
Sunset16:2322:23
Evening civil twilight16:5522:55

Current date and time
Zulu (UTC)  07-Dec-2022 13:18:52
Local (UTC-6)  07-Dec-2022 07:18:52
 
METAR
KJVL 
14nm NE 
071245Z 00000KT 1/4SM FZFG OVC001 M01/M01 A3018
KRFD 
16nm S 
071254Z 00000KT 5SM BR OVC013 01/M01 A3021 RMK AO2 SLP237 T00111006
KEFT 
18nm NW 
071255Z AUTO 3SM BR OVC011 M01/M02 A3016 RMK AO2 T10151016
KFEP 
20nm SW 
071255Z AUTO 00000KT 7SM OVC013 01/01 A3019 RMK AO2 T00100008
TAF
KJVL 
14nm NE 
071125Z 0712/0812 00000KT 1/4SM FZFG OVC002 FM071500 00000KT 3SM BR OVC011 FM071800 VRB03KT P6SM OVC013 FM072100 33006KT P6SM SCT020 FM080200 02005KT P6SM BKN025 FM080800 VRB03KT 3SM BR FEW009 BKN019
KRFD 
16nm S 
071120Z 0712/0812 VRB03KT 6SM BR OVC010 TEMPO 0712/0715 1SM BR OVC005 FM071800 31005KT P6SM BKN015 FM072100 35005KT P6SM BKN025 FM080100 01005KT P6SM SCT025 BKN100
NOTAMs
Click for the latest NOTAMs
NOTAMs are issued by the DoD/FAA and will open in a separate window not controlled by AirNav.

 

 
 

Would you like to see your business listed on this page?

 If your business provides an interesting product or service to pilots, flight crews, aircraft, or users of the Loeppert CPL Aero Airport, you should consider listing it here.  To start the listing process, click on the button below
 
Add a business
 

Other Pages about Loeppert CPL Aero Airport

Update a link
 
Copyright © AirNav, LLC. All rights reserved. Privacy Policy  Contact